Time;durP1;ratioP1;P1;durP2;ratioP2;P2;SDS_P1;SDS_P2;PMS_P1;PMS_P2;Temp;Humidity;BMP_temperature;BMP_pressure;BME280_temperature;BME280_humidity;BME280_pressure;Samples;Min_cycle;Max_cycle;Signal;HPM_P1;HPM_P2
2022/06/03 00:00:24;;;;;;;10.20;4.30;;;;;;;13.25;100.00;101834.47;5269025;27;20359;-70
2022/06/03 00:03:18;;;;;;;5.68;4.13;;;;;;;13.22;100.00;101841.03;5273257;28;20053;-70
2022/06/03 00:06:05;;;;;;;7.55;4.05;;;;;;;13.19;100.00;101833.22;5277296;28;20027;-70
2022/06/03 00:08:55;;;;;;;12.68;4.65;;;;;;;13.14;100.00;101833.72;5276004;28;20023;-70
2022/06/03 00:12:01;;;;;;;8.38;4.95;;;;;;;13.08;100.00;101837.03;5276147;28;20426;-70
2022/06/03 00:15:08;;;;;;;14.30;5.15;;;;;;;13.07;100.00;101832.66;5272464;28;20307;-70
2022/06/03 00:18:16;;;;;;;6.10;4.60;;;;;;;13.03;100.00;101831.28;5268058;28;20060;-70
2022/06/03 00:21:07;;;;;;;7.38;5.15;;;;;;;13.01;100.00;101829.78;5267825;28;20423;-70
2022/06/03 00:24:03;;;;;;;8.80;5.20;;;;;;;12.96;100.00;101824.84;5266987;28;20032;-70
2022/06/03 00:26:34;;;;;;;9.60;5.20;;;;;;;12.91;100.00;101821.78;5271203;28;20050;-70
2022/06/03 00:29:24;;;;;;;9.05;5.40;;;;;;;12.86;100.00;101811.50;5271755;27;20095;-70
2022/06/03 00:32:13;;;;;;;7.72;5.13;;;;;;;12.84;100.00;101832.31;5268027;28;20024;-70
2022/06/03 00:35:20;;;;;;;7.95;4.88;;;;;;;12.80;100.00;101816.63;5267612;28;20027;-70
2022/06/03 00:37:58;;;;;;;7.82;4.93;;;;;;;12.75;100.00;101811.75;5276714;28;20030;-70
2022/06/03 00:41:06;;;;;;;9.65;4.80;;;;;;;12.76;100.00;101812.59;5284918;28;20024;-70
2022/06/03 00:43:52;;;;;;;7.63;4.78;;;;;;;12.74;100.00;101811.88;5283771;28;20140;-70
2022/06/03 00:46:33;;;;;;;10.60;5.10;;;;;;;12.72;100.00;101816.59;5276181;28;20020;-70
2022/06/03 00:49:32;;;;;;;8.43;5.07;;;;;;;12.70;100.00;101820.31;5275480;28;20024;-70
2022/06/03 00:52:39;;;;;;;12.90;5.10;;;;;;;12.67;100.00;101815.22;5282047;28;20032;-70
2022/06/03 00:55:46;;;;;;;11.07;5.10;;;;;;;12.63;100.00;101821.91;5271530;28;20019;-70
2022/06/03 00:58:33;;;;;;;8.75;5.13;;;;;;;12.60;100.00;101803.41;5271042;28;20043;-70
2022/06/03 01:01:04;;;;;;;9.27;5.60;;;;;;;12.54;100.00;101806.69;5277099;28;20027;-70
2022/06/03 01:04:03;;;;;;;7.47;5.32;;;;;;;12.48;100.00;101804.63;5274537;28;20031;-70
2022/06/03 01:06:56;;;;;;;7.20;5.32;;;;;;;12.44;100.00;101800.53;5283107;28;20027;-70
2022/06/03 01:09:46;;;;;;;10.55;5.22;;;;;;;12.38;100.00;101795.78;5268782;28;20020;-70
2022/06/03 01:12:59;;;;;;;10.70;5.35;;;;;;;12.30;100.00;101799.28;5276713;28;20055;-69
2022/06/03 01:15:57;;;;;;;6.72;4.35;;;;;;;12.28;100.00;101795.03;5267002;28;20062;-70
2022/06/03 01:19:05;;;;;;;9.02;5.20;;;;;;;12.24;100.00;101790.94;5276526;28;20034;-69
2022/06/03 01:22:03;;;;;;;10.68;5.20;;;;;;;12.18;100.00;101792.41;5277949;28;20028;-69
2022/06/03 01:25:10;;;;;;;10.63;5.72;;;;;;;12.11;100.00;101786.81;5274281;28;20377;-70
2022/06/03 01:28:21;;;;;;;8.60;5.82;;;;;;;12.06;100.00;101783.75;5272775;28;20024;-70
2022/06/03 01:31:18;;;;;;;6.93;5.18;;;;;;;12.02;100.00;101779.66;5285973;28;20024;-70
2022/06/03 01:34:23;;;;;;;10.88;5.53;;;;;;;11.97;100.00;101786.50;5286458;28;20036;-70
2022/06/03 01:37:00;;;;;;;9.23;5.32;;;;;;;11.95;100.00;101781.28;5286816;28;20118;-69
2022/06/03 01:39:44;;;;;;;9.68;5.88;;;;;;;11.94;100.00;101787.63;5265516;28;20111;-69
2022/06/03 01:42:15;;;;;;;10.13;5.60;;;;;;;11.90;100.00;101781.72;5280194;28;20024;-70
2022/06/03 01:45:28;;;;;;;9.55;6.68;;;;;;;11.86;100.00;101776.81;5266732;28;20458;-70
2022/06/03 01:48:26;;;;;;;10.60;6.00;;;;;;;11.80;100.00;101780.06;5278827;28;20023;-70
2022/06/03 01:51:14;;;;;;;12.90;5.95;;;;;;;11.75;100.00;101780.53;5287383;28;20036;-70
2022/06/03 01:54:30;;;;;;;9.10;6.22;;;;;;;11.72;100.00;101769.22;5272841;28;20076;-70
2022/06/03 01:57:37;;;;;;;10.35;6.30;;;;;;;11.67;100.00;101770.53;5274102;28;20374;-70
2022/06/03 02:00:36;;;;;;;8.55;6.07;;;;;;;11.62;100.00;101769.28;5267957;28;20028;-69
2022/06/03 02:03:24;;;;;;;10.07;6.35;;;;;;;11.60;100.00;101771.28;5272884;28;20500;-70
2022/06/03 02:06:06;;;;;;;8.63;6.00;;;;;;;11.58;100.00;101767.88;5287242;28;20020;-69
2022/06/03 02:08:56;;;;;;;10.88;6.07;;;;;;;11.56;100.00;101765.34;5278523;28;20031;-70
2022/06/03 02:11:36;;;;;;;12.35;6.13;;;;;;;11.55;100.00;101762.84;5266085;28;20048;-70
2022/06/03 02:14:23;;;;;;;10.52;5.90;;;;;;;11.53;100.00;101760.28;5279462;28;20094;-70
2022/06/03 02:17:31;;;;;;;7.82;5.90;;;;;;;11.50;100.00;101752.53;5266174;28;20032;-70
2022/06/03 02:20:21;;;;;;;11.80;6.15;;;;;;;11.46;100.00;101750.28;5266245;28;20023;-70
2022/06/03 02:23:19;;;;;;;12.00;5.97;;;;;;;11.40;100.00;101743.69;5279732;28;20035;-70
2022/06/03 02:25:51;;;;;;;13.35;6.30;;;;;;;11.38;100.00;101751.03;5265676;28;20080;-70
2022/06/03 02:28:50;;;;;;;13.98;6.50;;;;;;;11.37;100.00;101754.72;5273682;28;20051;-69
2022/06/03 02:31:36;;;;;;;10.88;6.30;;;;;;;11.37;100.00;101752.88;5275151;28;20027;-69
2022/06/03 02:34:23;;;;;;;14.73;6.10;;;;;;;11.36;100.00;101742.28;5281785;28;20034;-70
2022/06/03 02:37:17;;;;;;;10.02;6.28;;;;;;;11.32;100.00;101741.72;5266690;28;20043;-71
2022/06/03 02:40:25;;;;;;;9.15;6.22;;;;;;;11.30;100.00;101734.81;5275370;28;20020;-71
2022/06/03 02:43:31;;;;;;;13.40;6.30;;;;;;;11.30;100.00;101729.47;5276933;28;20114;-70
2022/06/03 02:46:21;;;;;;;11.15;7.13;;;;;;;11.25;100.00;101735.28;5275251;28;20019;-70
2022/06/03 02:49:12;;;;;;;10.30;7.07;;;;;;;11.21;100.00;101730.34;5266916;28;20063;-70
2022/06/03 02:52:05;;;;;;;10.82;6.50;;;;;;;11.19;100.00;101735.00;5279615;28;20029;-70
2022/06/03 02:55:14;;;;;;;9.20;6.18;;;;;;;11.17;100.00;101732.47;5265423;28;20114;-71
2022/06/03 02:58:20;;;;;;;9.05;6.70;;;;;;;11.14;100.00;101732.75;5265950;28;20020;-69
2022/06/03 03:01:09;;;;;;;;;;;;;;;11.10;100.00;101739.44;5275707;28;20059;-68
2022/06/03 03:03:41;;;;;;;13.02;6.20;;;;;;;11.08;100.00;101731.50;5272926;28;20327;-71
2022/06/03 03:06:45;;;;;;;11.57;5.88;;;;;;;11.08;100.00;101727.97;5286656;28;20012;-71
2022/06/03 03:09:32;;;;;;;10.52;6.60;;;;;;;11.06;100.00;101733.50;5272942;28;20032;-70
2022/06/03 03:12:17;;;;;;;14.75;7.57;;;;;;;11.04;100.00;101730.13;5274993;28;20111;-70
2022/06/03 03:15:10;;;;;;;9.05;6.63;;;;;;;11.02;100.00;101723.22;5267396;28;20016;-70
2022/06/03 03:17:53;;;;;;;11.10;7.68;;;;;;;10.97;100.00;101725.50;5284560;28;20370;-70
2022/06/03 03:20:59;;;;;;;14.43;7.13;;;;;;;10.91;100.00;101718.03;5279200;28;20020;-70
2022/06/03 03:23:57;;;;;;;10.30;7.10;;;;;;;10.88;100.00;101719.16;5269729;28;20078;-69
2022/06/03 03:26:48;;;;;;;14.07;7.13;;;;;;;10.83;100.00;101716.91;5269128;28;20515;-69
2022/06/03 03:29:39;;;;;;;14.27;7.13;;;;;;;10.81;100.00;101716.22;5288191;28;20028;-69
2022/06/03 03:32:39;;;;;;;12.93;7.47;;;;;;;10.79;100.00;101710.16;5276054;28;20114;-70
2022/06/03 03:35:25;;;;;;;16.02;8.00;;;;;;;10.72;100.00;101714.41;5290018;28;20027;-70
2022/06/03 03:38:14;;;;;;;;;;;;;;;10.69;100.00;101706.66;5281402;28;20039;-69
2022/06/03 03:41:03;;;;;;;13.65;7.57;;;;;;;10.66;100.00;101709.63;5287965;28;19912;-70
2022/06/03 03:43:35;;;;;;;13.10;7.90;;;;;;;10.67;100.00;101716.69;5290313;28;20499;-70
2022/06/03 03:46:37;;;;;;;16.58;8.48;;;;;;;10.68;100.00;101707.66;5280433;28;20020;-70
2022/06/03 03:49:10;;;;;;;15.10;7.82;;;;;;;10.68;100.00;101709.47;5267905;28;20103;-70
2022/06/03 03:52:10;;;;;;;11.13;8.05;;;;;;;10.67;100.00;101702.44;5285809;28;20059;-70
2022/06/03 03:55:04;;;;;;;15.43;8.38;;;;;;;10.65;100.00;101702.59;5276025;28;20099;-71
2022/06/03 03:57:52;;;;;;;11.25;7.35;;;;;;;10.62;100.00;101711.75;5279087;28;20392;-70
2022/06/03 04:01:03;;;;;;;15.45;8.57;;;;;;;10.61;100.00;101715.44;5268903;28;20024;-70
2022/06/03 04:04:06;;;;;;;15.23;7.93;;;;;;;10.61;100.00;101712.75;5274428;28;20305;-70
2022/06/03 04:06:57;;;;;;;14.77;8.55;;;;;;;10.62;100.00;101716.28;5269806;28;20036;-70
2022/06/03 04:09:59;;;;;;;15.80;8.48;;;;;;;10.63;100.00;101713.44;5269930;28;20500;-70
2022/06/03 04:12:46;;;;;;;13.02;7.78;;;;;;;10.65;100.00;101713.31;5289256;28;20481;-70
2022/06/03 04:15:53;;;;;;;14.52;8.45;;;;;;;10.65;100.00;101715.16;5277312;28;20035;-71
2022/06/03 04:18:50;;;;;;;19.73;8.75;;;;;;;10.66;100.00;101723.06;5268314;28;20043;-69
2022/06/03 04:21:28;;;;;;;17.20;8.35;;;;;;;10.70;100.00;101718.25;5281832;28;20393;-69
2022/06/03 04:24:28;;;;;;;19.08;8.63;;;;;;;10.73;100.00;101723.31;5268895;28;20381;-70
2022/06/03 04:27:17;;;;;;;17.00;9.02;;;;;;;10.77;100.00;101719.34;5282701;28;20031;-70
2022/06/03 04:30:04;;;;;;;16.40;8.90;;;;;;;10.82;100.00;101717.91;5277387;28;20035;-70
2022/06/03 04:33:12;;;;;;;18.13;8.98;;;;;;;10.90;100.00;101714.50;5273727;28;20553;-70
2022/06/03 04:36:02;;;;;;;12.88;8.75;;;;;;;10.97;100.00;101714.75;5284209;28;20060;-69
2022/06/03 04:39:09;;;;;;;19.90;9.05;;;;;;;11.05;100.00;101718.41;5268942;28;20036;-70
2022/06/03 04:42:26;;;;;;;15.90;9.40;;;;;;;11.13;100.00;101721.16;5275078;28;20028;-70
2022/06/03 04:45:13;;;;;;;20.85;9.68;;;;;;;11.20;100.00;101718.75;5274928;28;20031;-70
2022/06/03 04:48:15;;;;;;;14.45;8.93;;;;;;;11.27;100.00;101716.31;5278238;28;20098;-71
2022/06/03 04:51:23;;;;;;;15.88;9.50;;;;;;;11.32;100.00;101720.22;5277792;28;20027;-71
2022/06/03 04:54:31;;;;;;;15.80;8.98;;;;;;;11.38;100.00;101716.94;5267711;28;20024;-71
2022/06/03 04:57:39;;;;;;;13.52;9.25;;;;;;;11.43;100.00;101713.81;5288501;28;20550;-70
2022/06/03 05:00:38;;;;;;;19.33;9.27;;;;;;;11.48;100.00;101716.88;5268524;28;20024;-71
2022/06/03 05:03:46;;;;;;;14.15;9.27;;;;;;;11.55;100.00;101715.31;5287884;28;20480;-70
2022/06/03 05:06:42;;;;;;;12.95;9.00;;;;;;;11.63;100.00;101711.84;5271763;28;20063;-70
2022/06/03 05:09:29;;;;;;;14.77;9.20;;;;;;;11.72;100.00;101716.31;5267789;28;20028;-70
2022/06/03 05:12:16;;;;;;;18.20;10.07;;;;;;;11.82;100.00;101710.91;5277442;28;20036;-70
2022/06/03 05:15:25;;;;;;;15.50;9.57;;;;;;;11.91;100.00;101708.13;5267975;28;20016;-71
2022/06/03 05:18:11;;;;;;;13.55;8.80;;;;;;;12.00;100.00;101717.13;5272802;28;20036;-71
2022/06/03 05:20:59;;;;;;;14.18;9.98;;;;;;;12.10;100.00;101712.50;5273956;28;20153;-71
2022/06/03 05:23:54;;;;;;;18.02;9.40;;;;;;;12.24;100.00;101723.69;5277068;28;20618;-71
2022/06/03 05:26:49;;;;;;;20.27;10.00;;;;;;;12.35;100.00;101712.66;5269103;28;20047;-70
2022/06/03 05:29:36;;;;;;;17.92;10.07;;;;;;;12.48;100.00;101710.44;5288073;28;20438;-71
2022/06/03 05:32:48;;;;;;;18.08;9.82;;;;;;;12.62;100.00;101707.16;5272688;28;20032;-70
2022/06/03 05:35:36;;;;;;;19.92;11.02;;;;;;;12.77;100.00;101710.13;5291686;27;20040;-71
2022/06/03 05:38:12;;;;;;;16.30;10.80;;;;;;;12.89;100.00;101698.03;5276593;28;20023;-71
2022/06/03 05:41:00;;;;;;;16.42;10.43;;;;;;;13.04;100.00;101700.13;5281813;28;20039;-71
2022/06/03 05:43:58;;;;;;;16.60;9.70;;;;;;;13.19;100.00;101691.28;5280049;28;20373;-71
2022/06/03 05:46:51;;;;;;;14.75;9.82;;;;;;;13.38;100.00;101705.53;5280138;28;20369;-71
2022/06/03 05:49:51;;;;;;;14.27;10.32;;;;;;;13.57;100.00;101699.00;5266753;28;20386;-71
2022/06/03 05:52:49;;;;;;;19.45;10.18;;;;;;;13.81;100.00;101706.31;5266488;28;20031;-71
2022/06/03 05:55:44;;;;;;;21.77;9.75;;;;;;;14.14;100.00;101704.47;5286031;28;20081;-72
2022/06/03 05:58:52;;;;;;;14.82;9.80;;;;;;;14.82;100.00;101706.78;5270254;28;20077;-72
2022/06/03 06:02:00;;;;;;;14.15;8.63;;;;;;;16.03;100.00;101703.63;5270692;28;20020;-71
2022/06/03 06:04:47;;;;;;;13.70;7.63;;;;;;;16.98;100.00;101703.91;5272106;28;20031;-70
2022/06/03 06:07:34;;;;;;;13.00;8.52;;;;;;;17.80;100.00;101706.38;5277325;28;20016;-70
2022/06/03 06:10:24;;;;;;;10.80;7.18;;;;;;;18.59;100.00;101703.50;5265415;28;20035;-71
2022/06/03 06:13:01;;;;;;;10.55;7.90;;;;;;;18.89;100.00;101708.75;5269633;28;20028;-70
2022/06/03 06:15:55;;;;;;;10.82;7.30;;;;;;;19.15;100.00;101710.75;5287032;28;20076;-70
2022/06/03 06:18:32;;;;;;;14.13;7.03;;;;;;;19.52;100.00;101712.16;5266279;28;20068;-70
2022/06/03 06:21:17;;;;;;;11.40;7.18;;;;;;;19.80;100.00;101708.50;5268712;28;20027;-70
2022/06/03 06:24:13;;;;;;;10.00;6.80;;;;;;;20.30;100.00;101708.97;5274533;28;20020;-70
2022/06/03 06:27:05;;;;;;;9.55;6.38;;;;;;;20.66;100.00;101708.56;5270894;28;20020;-71
2022/06/03 06:30:11;;;;;;;9.95;6.30;;;;;;;21.11;100.00;101708.66;5279293;28;20027;-71
2022/06/03 06:32:59;;;;;;;12.43;6.05;;;;;;;21.10;96.85;101709.72;5285227;28;20019;-71
2022/06/03 06:36:06;;;;;;;10.38;6.43;;;;;;;21.53;97.08;101711.88;5270548;28;20032;-71
2022/06/03 06:38:53;;;;;;;11.55;6.38;;;;;;;21.48;93.11;101700.75;5279777;28;20027;-71
2022/06/03 06:41:54;;;;;;;10.88;6.35;;;;;;;21.44;92.05;101697.66;5276790;28;20024;-71
2022/06/03 06:44:52;;;;;;;9.98;5.80;;;;;;;21.51;94.95;101697.59;5265775;28;20371;-71
2022/06/03 06:47:42;;;;;;;11.07;6.40;;;;;;;21.84;92.40;101690.06;5279507;28;20111;-71
2022/06/03 06:50:47;;;;;;;6.65;5.90;;;;;;;21.96;90.82;101693.75;5278743;28;20032;-70
2022/06/03 06:53:53;;;;;;;10.00;6.00;;;;;;;22.29;89.84;101695.44;5269976;28;20027;-71
2022/06/03 06:56:58;;;;;;;7.60;5.50;;;;;;;22.58;88.71;101704.81;5282815;28;20488;-71
2022/06/03 06:59:35;;;;;;;9.05;6.20;;;;;;;22.68;85.17;101709.75;5270338;28;20750;-71
2022/06/03 07:02:15;;;;;;;10.10;6.10;;;;;;;23.03;87.73;101710.06;5289681;27;20105;-71
2022/06/03 07:04:54;;;;;;;10.40;6.40;;;;;;;23.31;85.88;101700.47;5289018;28;20020;-71
2022/06/03 07:07:34;;;;;;;8.55;6.05;;;;;;;23.34;82.40;101700.81;5277845;28;20153;-71
2022/06/03 07:10:08;;;;;;;12.32;6.18;;;;;;;23.66;84.65;101697.91;5281973;28;20024;-71
2022/06/03 07:13:11;;;;;;;11.00;6.20;;;;;;;23.75;79.26;101699.25;5268879;28;20035;-71
2022/06/03 07:15:51;;;;;;;10.80;6.32;;;;;;;23.99;83.08;101695.50;5288980;28;20035;-71
2022/06/03 07:21:52;;;;;;;12.63;6.82;;;;;;;23.91;77.48;101708.72;5281191;28;20020;-71
2022/06/03 07:24:37;;;;;;;12.18;6.20;;;;;;;24.09;77.47;101707.78;5279978;28;20031;-71
2022/06/03 07:27:17;;;;;;;9.30;6.05;;;;;;;23.97;77.39;101705.03;5273616;28;20019;-71
2022/06/03 07:29:57;;;;;;;8.55;6.30;;;;;;;24.32;79.07;101707.00;5279353;28;20044;-71
2022/06/03 07:32:36;;;;;;;9.18;5.57;;;;;;;24.27;73.71;101700.31;5283914;28;20125;-71
2022/06/03 07:35:12;;;;;;;9.27;4.93;;;;;;;24.25;75.79;101688.75;5276028;27;20061;-71
2022/06/03 07:38:05;;;;;;;13.77;6.35;;;;;;;24.66;77.20;101687.00;5267662;28;20031;-71
2022/06/03 07:40:55;;;;;;;9.55;5.57;;;;;;;24.59;74.86;101685.44;5280773;28;20107;-71
2022/06/03 07:43:44;;;;;;;9.35;5.20;;;;;;;24.91;73.68;101681.25;5267296;28;20060;-71
2022/06/03 07:46:22;;;;;;;8.48;5.13;;;;;;;25.07;71.06;101682.44;5277886;28;20366;-71
2022/06/03 07:48:53;;;;;;;8.32;5.22;;;;;;;25.16;69.84;101680.16;5288523;28;20043;-71
2022/06/03 07:54:34;;;;;;;12.80;5.10;;;;;;;25.27;69.89;101668.28;5267064;28;20110;-72
2022/06/03 07:57:08;;;;;;;7.75;3.65;;;;;;;25.18;66.75;101665.09;5287182;28;20377;-71
2022/06/03 07:59:40;;;;;;;9.68;4.00;;;;;;;25.40;68.27;101665.25;5288618;28;20051;-71
2022/06/03 08:02:11;;;;;;;7.07;3.70;;;;;;;25.42;65.24;101657.59;5275055;28;20458;-71
2022/06/03 08:04:45;;;;;;;8.52;4.00;;;;;;;25.48;65.62;101655.78;5281301;28;20397;-71
2022/06/03 08:13:04;;;;;;;10.20;3.90;;;;;;;25.48;65.04;101651.13;5283499;28;20473;-70
2022/06/03 08:15:53;;;;;;;5.15;3.55;;;;;;;25.55;63.05;101643.56;5277838;28;20034;-70
2022/06/03 08:18:27;;;;;;;3.90;3.20;;;;;;;25.45;62.79;101635.16;5274889;28;20031;-70
2022/06/03 08:21:03;;;;;;;6.25;3.22;;;;;;;25.68;65.12;101634.19;5287367;28;20028;-71
2022/06/03 08:23:34;;;;;;;6.10;3.50;;;;;;;25.98;65.82;101633.88;5275584;28;20493;-70
2022/06/03 08:26:11;;;;;;;8.88;3.47;;;;;;;25.94;61.70;101634.63;5264606;28;20012;-71
2022/06/03 08:28:47;;;;;;;5.05;2.95;;;;;;;26.04;65.82;101637.56;5266845;28;20568;-70
2022/06/03 08:31:21;;;;;;;6.53;3.47;;;;;;;26.31;61.35;101645.97;5277580;28;20036;-70
2022/06/03 08:33:58;;;;;;;4.18;3.20;;;;;;;26.62;62.63;101636.25;5280209;28;20076;-70
2022/06/03 08:36:34;;;;;;;6.15;3.13;;;;;;;26.63;59.50;101643.44;5276949;28;20094;-70
2022/06/03 08:39:14;;;;;;;3.50;2.78;;;;;;;26.57;59.72;101647.19;5273866;28;20331;-71
2022/06/03 08:42:22;;;;;;;6.00;2.92;;;;;;;26.53;59.08;101638.59;5272392;28;20028;-71
2022/06/03 08:45:21;;;;;;;5.07;3.13;;;;;;;26.78;59.10;101626.28;5273136;28;20036;-70
2022/06/03 08:48:11;;;;;;;6.05;3.03;;;;;;;27.08;57.07;101634.94;5266174;28;20099;-71
2022/06/03 08:50:53;;;;;;;7.97;3.10;;;;;;;27.00;55.22;101638.13;5265618;28;20026;-71
2022/06/03 08:53:36;;;;;;;8.88;2.70;;;;;;;26.95;56.54;101639.97;5265953;28;20362;-70
2022/06/03 08:56:11;;;;;;;9.68;2.75;;;;;;;26.77;55.40;101630.97;5278263;28;20114;-70
2022/06/03 08:58:46;;;;;;;7.93;2.63;;;;;;;26.77;56.50;101638.38;5267154;28;20441;-70
2022/06/03 09:01:36;;;;;;;5.78;2.80;;;;;;;26.95;58.79;101635.28;5268936;28;20034;-70
2022/06/03 09:04:22;;;;;;;5.00;2.88;;;;;;;27.00;55.20;101637.28;5277400;28;20032;-70
2022/06/03 09:07:10;;;;;;;3.40;2.00;;;;;;;26.66;55.90;101636.56;5266270;28;20028;-71
2022/06/03 09:10:17;;;;;;;3.65;2.60;;;;;;;26.37;54.70;101642.19;5272526;28;20028;-72
2022/06/03 09:13:07;;;;;;;5.45;2.28;;;;;;;26.70;56.40;101634.97;5287768;28;20106;-71
2022/06/03 09:15:43;;;;;;;6.78;2.20;;;;;;;26.67;54.39;101632.75;5273892;28;20063;-70
2022/06/03 09:18:20;;;;;;;2.88;2.03;;;;;;;27.16;55.24;101630.91;5278804;28;20063;-70
2022/06/03 09:20:57;;;;;;;3.42;1.88;;;;;;;27.39;53.29;101634.47;5278719;28;20020;-70
2022/06/03 09:23:32;;;;;;;4.15;1.90;;;;;;;27.63;52.55;101646.81;5274940;28;20492;-71
2022/06/03 09:26:03;;;;;;;6.55;1.83;;;;;;;27.83;51.37;101640.69;5268744;28;20034;-70
2022/06/03 09:28:36;;;;;;;4.85;2.22;;;;;;;27.95;51.84;101644.09;5284850;28;20023;-71
2022/06/03 09:31:10;;;;;;;5.63;2.33;;;;;;;28.00;50.39;101641.38;5272764;28;20023;-71
2022/06/03 09:33:44;;;;;;;2.45;1.70;;;;;;;28.03;51.23;101635.34;5284053;28;20016;-71
2022/06/03 09:36:18;;;;;;;5.88;1.70;;;;;;;27.91;49.41;101637.44;5265188;28;20036;-71
2022/06/03 09:38:56;;;;;;;7.40;1.87;;;;;;;27.72;49.46;101625.19;5278967;28;20024;-71
2022/06/03 09:41:47;;;;;;;7.70;1.95;;;;;;;27.68;50.10;101626.75;5276763;28;20035;-71
2022/06/03 09:44:21;;;;;;;5.63;1.58;;;;;;;27.69;48.83;101628.41;5265175;28;20032;-71
2022/06/03 09:47:00;;;;;;;4.35;2.13;;;;;;;27.91;48.25;101623.66;5267464;28;20055;-71
2022/06/03 09:49:32;;;;;;;3.35;1.90;;;;;;;27.93;46.45;101627.00;5274771;28;20035;-71
2022/06/03 09:52:08;;;;;;;4.00;1.63;;;;;;;27.86;47.87;101626.38;5283268;28;20024;-71
2022/06/03 09:54:41;;;;;;;2.20;1.55;;;;;;;27.22;45.77;101615.28;5273016;28;20039;-71
2022/06/03 09:57:16;;;;;;;4.60;1.40;;;;;;;26.78;46.61;101613.34;5265222;28;20028;-71
2022/06/03 10:00:13;;;;;;;1.92;1.50;;;;;;;26.66;49.21;101606.28;5266362;28;20081;-71
2022/06/03 10:02:44;;;;;;;3.42;1.85;;;;;;;26.25;47.97;101608.44;5285852;27;20011;-71
2022/06/03 10:05:17;;;;;;;3.70;1.52;;;;;;;26.24;47.37;101609.53;5278573;28;20020;-70
2022/06/03 10:07:59;;;;;;;2.97;1.50;;;;;;;26.33;46.19;101608.84;5279104;28;20335;-70
2022/06/03 10:13:20;;;;;;;3.83;1.50;;;;;;;26.33;49.10;101608.03;5278673;28;20500;-70
2022/06/03 10:15:56;;;;;;;2.22;1.40;;;;;;;26.68;49.59;101595.88;5278115;28;20023;-70
2022/06/03 10:18:28;;;;;;;2.55;1.45;;;;;;;27.19;45.96;101604.78;5273622;28;20054;-70
2022/06/03 10:21:17;;;;;;;4.85;1.70;;;;;;;27.46;44.58;101596.50;5268685;27;20043;-70
2022/06/03 10:23:56;;;;;;;3.60;1.58;;;;;;;27.10;44.99;101591.44;5277871;28;20400;-70
2022/06/03 10:26:30;;;;;;;1.33;1.23;;;;;;;26.55;43.00;101584.16;5282509;28;20099;-70
2022/06/03 10:29:13;;;;;;;2.90;1.40;;;;;;;26.16;45.85;101586.06;5264320;28;20035;-70
2022/06/03 10:32:06;;;;;;;3.03;1.40;;;;;;;26.30;47.13;101587.34;5264566;28;20389;-71
2022/06/03 10:34:39;;;;;;;1.60;1.20;;;;;;;26.11;45.10;101588.75;5264646;28;20137;-71
2022/06/03 10:37:14;;;;;;;2.70;1.23;;;;;;;26.18;44.05;101588.56;5277620;28;20020;-71
2022/06/03 10:39:45;;;;;;;4.60;1.33;;;;;;;25.91;47.39;101591.19;5275802;28;20074;-70
2022/06/03 10:42:19;;;;;;;2.42;1.35;;;;;;;26.30;47.05;101584.59;5264989;28;20077;-71
2022/06/03 10:44:56;;;;;;;2.38;1.50;;;;;;;26.66;47.93;101585.13;5277786;28;20362;-70
2022/06/03 10:47:44;;;;;;;4.20;1.13;;;;;;;26.64;43.42;101576.28;5272337;28;20027;-71
2022/06/03 10:50:34;;;;;;;4.72;1.40;;;;;;;26.36;44.58;101588.28;5280609;28;20031;-71
2022/06/03 11:01:55;;;;;;;7.00;1.70;;;;;;;26.61;43.48;101590.56;5266936;28;20018;-70
2022/06/03 11:04:29;;;;;;;2.38;1.42;;;;;;;26.65;43.98;101590.88;5276871;28;20145;-70
2022/06/03 11:07:02;;;;;;;1.35;1.15;;;;;;;26.56;43.01;101588.59;5272655;28;20024;-71
2022/06/03 11:09:34;;;;;;;4.32;1.58;;;;;;;26.79;41.99;101581.16;5282374;28;21875;-71
2022/06/03 11:12:05;;;;;;;8.68;1.73;;;;;;;26.77;41.84;101575.91;5263883;28;20102;-70
2022/06/03 11:14:38;;;;;;;4.05;1.52;;;;;;;26.85;41.38;101594.72;5267924;28;20038;-71
2022/06/03 11:17:36;;;;;;;3.65;1.30;;;;;;;27.07;42.21;101597.50;5272368;28;20035;-71
2022/06/03 11:20:44;;;;;;;2.88;1.30;;;;;;;26.84;42.49;101587.53;5264024;28;20058;-70
2022/06/03 11:23:15;;;;;;;4.25;1.13;;;;;;;26.41;44.57;101588.34;5263714;28;20047;-70
2022/06/03 11:25:49;;;;;;;3.47;1.20;;;;;;;26.35;43.33;101589.34;5279064;28;20092;-71
2022/06/03 11:28:28;;;;;;;3.15;1.58;;;;;;;26.27;43.08;101581.53;5280389;28;20024;-71
2022/06/03 11:31:19;;;;;;;6.80;1.40;;;;;;;26.31;43.51;101588.22;5286208;28;20116;-71
2022/06/03 11:34:12;;;;;;;4.07;1.30;;;;;;;26.49;43.49;101585.16;5282817;28;20024;-71
2022/06/03 11:36:50;;;;;;;3.08;1.42;;;;;;;26.54;42.55;101593.50;5265512;28;20481;-72
2022/06/03 11:39:32;;;;;;;3.75;1.35;;;;;;;26.50;44.72;101586.00;5275920;28;20027;-71
2022/06/03 11:42:19;;;;;;;1.88;1.33;;;;;;;26.36;42.36;101585.53;5286285;28;20032;-70
2022/06/03 11:45:27;;;;;;;4.55;2.05;;;;;;;26.54;46.15;101582.50;5268924;28;20038;-71
2022/06/03 11:48:03;;;;;;;8.32;1.80;;;;;;;26.53;43.18;101580.00;5279858;28;20039;-70
2022/06/03 11:50:35;;;;;;;2.63;1.52;;;;;;;26.66;44.50;101578.78;5269332;28;20031;-70
2022/06/03 11:53:06;;;;;;;3.83;1.77;;;;;;;26.65;44.52;101577.13;5268478;28;20393;-70
2022/06/03 11:55:38;;;;;;;4.05;1.40;;;;;;;26.71;44.00;101576.94;5281738;28;20036;-70
2022/06/03 11:58:18;;;;;;;3.65;1.40;;;;;;;26.83;44.78;101574.06;5282167;28;20500;-70
2022/06/03 12:00:54;;;;;;;6.22;1.40;;;;;;;26.69;42.61;101575.53;5277165;28;20132;-70
2022/06/03 12:03:51;;;;;;;3.40;1.40;;;;;;;26.71;44.66;101565.94;5273159;28;20051;-71
2022/06/03 12:06:32;;;;;;;3.10;1.30;;;;;;;26.68;44.55;101565.59;5275472;28;20366;-70
2022/06/03 12:09:28;;;;;;;5.78;1.35;;;;;;;26.89;44.71;101555.66;5288663;28;20046;-70
2022/06/03 12:14:58;;;;;;;2.65;1.23;;;;;;;26.99;43.91;101556.59;5268503;28;20031;-70
2022/06/03 12:17:32;;;;;;;2.35;1.60;;;;;;;27.09;42.41;101561.44;5267235;28;20429;-71
2022/06/03 12:20:35;;;;;;;2.03;1.48;;;;;;;27.17;42.33;101558.22;5276336;28;20423;-71
2022/06/03 12:23:24;;;;;;;6.47;1.50;;;;;;;26.99;43.02;101559.34;5268288;28;20032;-71
2022/06/03 12:25:55;;;;;;;2.92;1.88;;;;;;;26.80;41.97;101553.34;5267241;28;20157;-71
2022/06/03 12:28:32;;;;;;;4.07;1.40;;;;;;;26.99;45.56;101553.84;5275018;28;20495;-71
2022/06/03 12:31:13;;;;;;;4.47;1.60;;;;;;;26.94;41.47;101553.78;5281367;28;20035;-71
2022/06/03 12:33:54;;;;;;;5.32;2.03;;;;;;;26.89;43.77;101547.41;5293387;27;20071;-70
2022/06/03 12:36:47;;;;;;;2.22;1.42;;;;;;;26.94;43.52;101548.28;5269399;28;20031;-70
2022/06/03 12:39:18;;;;;;;3.92;1.95;;;;;;;27.07;46.06;101560.84;5289578;27;20054;-71
2022/06/03 12:41:48;;;;;;;4.13;1.98;;;;;;;27.04;43.17;101553.06;5273594;28;20070;-71
2022/06/03 12:44:39;;;;;;;3.13;1.60;;;;;;;26.78;40.81;101549.22;5275313;28;20453;-70
2022/06/03 12:47:27;;;;;;;2.95;1.73;;;;;;;26.92;43.80;101555.16;5282957;28;20031;-71
2022/06/03 12:50:33;;;;;;;4.47;1.60;;;;;;;26.95;44.15;101554.63;5267057;28;20023;-71
2022/06/03 12:53:22;;;;;;;2.72;1.95;;;;;;;27.09;43.95;101550.41;5274541;28;20035;-71
2022/06/03 12:55:56;;;;;;;3.55;1.88;;;;;;;27.29;44.45;101547.03;5266959;28;20013;-71
2022/06/03 12:58:48;;;;;;;4.57;1.60;;;;;;;27.27;45.47;101549.22;5280650;28;20028;-71
2022/06/03 13:01:51;;;;;;;3.90;1.95;;;;;;;27.05;41.87;101549.22;5270704;28;20012;-70
2022/06/03 13:04:37;;;;;;;2.88;1.98;;;;;;;26.77;44.02;101555.81;5266789;28;20062;-71
2022/06/03 13:07:11;;;;;;;5.80;2.10;;;;;;;26.72;43.18;101545.56;5275242;28;20102;-71
2022/06/03 13:10:01;;;;;;;4.10;1.70;;;;;;;26.75;43.94;101556.06;5271224;28;20059;-71
2022/06/03 13:12:32;;;;;;;2.97;1.75;;;;;;;26.69;43.12;101546.06;5266500;28;20508;-71
2022/06/03 13:15:20;;;;;;;4.55;2.28;;;;;;;26.45;44.79;101545.50;5286802;28;20032;-70
2022/06/03 13:21:10;;;;;;;3.05;2.33;;;;;;;26.93;43.50;101540.31;5287560;28;20050;-71
2022/06/03 13:23:42;;;;;;;3.47;2.88;;;;;;;26.96;41.09;101543.38;5267080;28;20077;-71